CJC weather

El Loa Airport
Calama, Antofagasta Region, Chile

Public forecast

Using degrees Celsius for public forecast. Weather courtesy of forecast.io.

Current aviation weather report (METAR) for El Loa Airport

Retrieved 2020/05/31 22:00 UTC (42 minutes ago):

SCCF 312200Z 27013KT 9999 FEW060 BKN140 15/03 Q1027

Aviation forecast (TAF) for El Loa Airport

Retrieved 2020/05/31 18:00 UTC (5 hours ago):

TAF SCCF 311611Z 3118/0118 28015KT CAVOK TX19/3119Z TN00/0110Z BECMG 0100/0102 25004KT BKN100 BECMG 0104/0106 11015KT CAVOK BECMG 0114/0115 26004KT BECMG 0116/0118 27020KT